Decoded Metar for KPIB (PINE BELT RGNL in MS, USA) (IATA:PIB) | Meteo·Mobile Aviation Weather
aviador You're here:

KPIB Decoded Metar

PINE BELT RGNL in MS, USA
Report Time2019-05-26 16:56:00
UTC Time2019-05-26 17:28:52
Flight Rules vfr VFR
WindCalm
Visibility9999 m
Phenomena:N/A
Clouds:N/A
Expected CloudBase > 5,200 ft AGL from Temp-Dew spread
CeilingNone
Temp32°C (ISA +18)
Dew Point19°C (46% RH)
Heat Index33.5°C
QNH1022 hPa
Density Alt2,297 ft
Elevation299 ft
Report Wrong Elevation
Raw Report
KPIB 261656Z AUTO 00000KT 10SM CLR 32/19 A3017 RMK AO2 SLP212
T03170194=

Extra information for KPIB:More info

Metar Taf Metar & Taf Last 4 Metars F.Rules Stats Wind Profile Meteogram Temp Stats Airport Information Weather charts Add Link Nearby VenuesMetar ALERT Operation Metar Decoded Social comments

AIRNAV info for KPIB